Time;durP1;ratioP1;P1;durP2;ratioP2;P2;SDS_P1;SDS_P2;PMS_P1;PMS_P2;Temp;Humidity;BMP_temperature;BMP_pressure;BME280_temperature;BME280_humidity;BME280_pressure;Samples;Min_cycle;Max_cycle;Signal;HPM_P1;HPM_P2
2023/03/16 00:02:42;;;;;;;28.67;14.90;;;4.60;99.90;;;;;;5076158;28;20219;-67
2023/03/16 00:05:32;;;;;;;34.10;15.30;;;4.60;99.90;;;;;;5084094;28;20716;-67
2023/03/16 00:08:20;;;;;;;35.40;14.53;;;4.60;99.90;;;;;;5092473;28;20231;-67
2023/03/16 00:11:11;;;;;;;27.30;14.70;;;4.50;99.90;;;;;;5080822;28;20668;-65
2023/03/16 00:14:03;;;;;;;29.23;15.27;;;4.40;99.90;;;;;;5077772;28;20227;-68
2023/03/16 00:16:52;;;;;;;29.90;14.23;;;4.30;99.90;;;;;;5082730;28;20228;-67
2023/03/16 00:19:45;;;;;;;33.50;13.63;;;4.40;99.90;;;;;;5081399;28;20236;-68
2023/03/16 00:22:34;;;;;;;31.90;14.43;;;4.40;99.90;;;;;;5076423;28;20220;-67
2023/03/16 00:25:23;;;;;;;27.60;13.43;;;4.30;99.90;;;;;;5080212;28;20223;-64
2023/03/16 00:28:13;;;;;;;32.53;17.23;;;4.30;99.90;;;;;;5088988;27;20219;-66
2023/03/16 00:31:02;;;;;;;32.60;16.97;;;4.20;99.90;;;;;;5073091;28;20220;-66
2023/03/16 00:33:51;;;;;;;31.67;14.27;;;4.20;99.90;;;;;;5076971;28;20231;-67
2023/03/16 00:36:41;;;;;;;25.27;13.13;;;4.10;99.90;;;;;;5093585;27;20224;-66
2023/03/16 00:39:34;;;;;;;26.57;13.03;;;4.10;99.90;;;;;;5079873;28;20594;-67
2023/03/16 00:42:26;;;;;;;29.03;13.07;;;4.20;99.90;;;;;;5080094;28;20231;-65
2023/03/16 00:45:17;;;;;;;27.20;13.53;;;4.30;99.90;;;;;;5076201;28;20270;-67
2023/03/16 00:48:06;;;;;;;31.40;13.53;;;4.30;99.90;;;;;;5084918;28;20705;-66
2023/03/16 00:50:55;;;;;;;30.07;13.27;;;4.30;99.90;;;;;;5086833;27;20286;-68
2023/03/16 00:53:46;;;;;;;33.00;13.13;;;4.10;99.90;;;;;;5079139;28;20273;-68
2023/03/16 00:56:34;;;;;;;24.97;13.30;;;4.00;99.90;;;;;;5078522;28;20377;-66
2023/03/16 00:59:25;;;;;;;27.27;13.77;;;4.10;99.90;;;;;;5079652;28;20572;-67
2023/03/16 01:02:18;;;;;;;24.93;13.47;;;4.10;99.90;;;;;;5081439;28;20224;-67
2023/03/16 01:05:08;;;;;;;24.37;12.50;;;4.10;99.90;;;;;;5101979;27;20249;-67
2023/03/16 01:07:58;;;;;;;26.07;12.03;;;4.10;99.90;;;;;;5079990;28;20372;-67
2023/03/16 01:10:47;;;;;;;26.53;12.37;;;4.20;99.90;;;;;;5093978;28;20223;-68
2023/03/16 01:13:36;;;;;;;24.87;12.30;;;4.20;99.90;;;;;;5074422;28;20232;-66
2023/03/16 01:16:26;;;;;;;29.23;12.43;;;4.00;99.90;;;;;;5059195;28;20220;-67
2023/03/16 01:19:16;;;;;;;30.40;13.10;;;4.00;99.90;;;;;;5074905;28;20293;-67
2023/03/16 01:22:06;;;;;;;25.47;12.60;;;3.80;99.90;;;;;;5089030;28;20235;-66
2023/03/16 01:24:55;;;;;;;24.77;12.17;;;4.00;99.90;;;;;;5085420;28;20737;-66
2023/03/16 01:27:44;;;;;;;25.80;12.43;;;4.00;99.90;;;;;;5077160;28;20307;-66
2023/03/16 01:30:34;;;;;;;24.70;11.60;;;4.00;99.90;;;;;;5078907;28;20235;-66
2023/03/16 01:33:24;;;;;;;26.27;12.27;;;3.90;99.90;;;;;;5088686;28;20227;-67
2023/03/16 01:36:20;;;;;;;32.10;13.40;;;4.00;99.90;;;;;;5077858;28;20240;-65
2023/03/16 01:39:19;;;;;;;28.23;13.40;;;3.90;99.90;;;;;;5079833;28;20233;-66
2023/03/16 01:42:10;;;;;;;27.17;12.47;;;3.90;99.90;;;;;;5073790;28;20793;-63
2023/03/16 01:45:04;;;;;;;29.77;12.77;;;3.90;99.90;;;;;;5080821;27;20234;-67
2023/03/16 01:47:58;;;;;;;25.23;12.17;;;3.90;99.90;;;;;;5090116;28;20226;-67
2023/03/16 01:50:48;;;;;;;24.03;12.30;;;3.70;99.90;;;;;;5081269;28;20272;-66
2023/03/16 01:53:40;;;;;;;28.53;12.60;;;3.60;99.90;;;;;;5080792;28;20219;-66
2023/03/16 01:56:34;;;;;;;26.00;12.17;;;3.60;99.90;;;;;;5076736;28;20231;-66
2023/03/16 01:59:28;;;;;;;28.93;11.30;;;3.70;99.90;;;;;;5080764;28;20591;-67
2023/03/16 02:02:21;;;;;;;24.33;12.27;;;3.50;99.90;;;;;;5076351;28;20219;-65
2023/03/16 02:05:14;;;;;;;25.87;11.70;;;3.50;99.90;;;;;;5075795;28;20310;-67
2023/03/16 02:08:04;;;;;;;29.40;13.40;;;3.60;99.90;;;;;;5076110;28;20272;-66
2023/03/16 02:11:08;;;;;;;24.60;12.03;;;3.50;99.90;;;;;;5095281;28;20230;-65
2023/03/16 02:14:18;;;;;;;27.40;11.93;;;3.50;99.90;;;;;;5076997;28;20878;-66
2023/03/16 02:17:07;;;;;;;24.17;12.37;;;3.60;99.90;;;;;;5091464;28;20252;-66
2023/03/16 02:20:10;;;;;;;25.07;12.40;;;3.70;99.90;;;;;;5074611;28;20222;-66
2023/03/16 02:23:00;;;;;;;24.03;11.67;;;3.70;99.90;;;;;;5080940;28;21462;-66
2023/03/16 02:25:57;;;;;;;25.23;11.73;;;3.60;99.90;;;;;;5088043;28;20598;-66
2023/03/16 02:29:00;;;;;;;25.23;11.20;;;3.70;99.90;;;;;;5100321;27;20322;-67
2023/03/16 02:31:53;;;;;;;20.50;11.17;;;3.50;99.90;;;;;;5082597;28;20301;-67
2023/03/16 02:34:42;;;;;;;22.93;11.63;;;3.60;99.90;;;;;;5075056;28;20239;-66
2023/03/16 02:37:33;;;;;;;25.30;11.67;;;3.60;99.90;;;;;;5085702;28;20234;-64
2023/03/16 02:40:27;;;;;;;26.53;11.37;;;3.50;99.90;;;;;;5072166;28;20215;-64
2023/03/16 02:43:24;;;;;;;23.67;11.00;;;3.60;99.90;;;;;;5083292;28;20674;-63
2023/03/16 02:46:27;;;;;;;23.00;11.70;;;3.60;99.90;;;;;;5094689;27;20223;-66
2023/03/16 02:49:23;;;;;;;21.03;11.50;;;3.50;99.90;;;;;;5080237;28;20252;-64
2023/03/16 02:52:12;;;;;;;27.60;11.50;;;3.60;99.90;;;;;;5078642;28;20313;-63
2023/03/16 02:55:01;;;;;;;26.97;11.33;;;3.80;99.90;;;;;;5070893;28;20280;-64
2023/03/16 02:57:51;;;;;;;26.23;12.07;;;3.70;99.90;;;;;;5082325;28;20639;-64
2023/03/16 03:00:41;;;;;;;24.03;11.90;;;3.60;99.90;;;;;;5083666;28;20386;-64
2023/03/16 03:03:33;;;;;;;29.53;12.73;;;3.60;99.90;;;;;;5084137;28;20314;-65
2023/03/16 03:06:24;;;;;;;23.37;12.07;;;3.50;99.90;;;;;;5082355;28;20235;-65
2023/03/16 03:09:13;;;;;;;27.73;12.63;;;3.50;99.90;;;;;;5080036;28;20239;-63
2023/03/16 03:12:03;;;;;;;28.53;11.43;;;3.40;99.90;;;;;;5078242;28;20262;-64
2023/03/16 03:14:53;;;;;;;25.97;12.17;;;3.20;99.90;;;;;;5078885;28;20336;-63
2023/03/16 03:17:42;;;;;;;27.57;12.10;;;3.10;99.90;;;;;;5077826;28;20262;-63
2023/03/16 03:20:31;;;;;;;26.67;12.67;;;3.10;99.90;;;;;;5083186;28;20231;-63
2023/03/16 03:23:22;;;;;;;27.57;14.03;;;3.10;99.90;;;;;;5080395;28;20234;-64
2023/03/16 03:26:15;;;;;;;27.97;12.43;;;3.20;99.90;;;;;;5078161;28;20226;-64
2023/03/16 03:29:06;;;;;;;29.73;12.93;;;3.10;99.90;;;;;;5079372;28;20567;-65
2023/03/16 03:31:55;;;;;;;28.43;12.67;;;3.10;99.90;;;;;;5091212;28;20333;-67
2023/03/16 03:34:44;;;;;;;25.93;13.23;;;3.10;99.90;;;;;;5078634;28;20215;-64
2023/03/16 03:37:33;;;;;;;28.30;13.50;;;3.10;99.90;;;;;;5085662;28;20368;-64
2023/03/16 03:40:23;;;;;;;27.23;13.07;;;3.00;99.90;;;;;;5077049;28;20226;-64
2023/03/16 03:43:26;;;;;;;26.83;13.53;;;3.10;99.90;;;;;;5093289;27;20230;-62
2023/03/16 03:46:15;;;;;;;28.73;14.67;;;2.90;99.90;;;;;;5092893;28;20230;-64
2023/03/16 03:49:04;;;;;;;28.77;14.03;;;3.00;99.90;;;;;;5070349;28;20271;-62
2023/03/16 03:51:57;;;;;;;29.93;13.77;;;3.10;99.90;;;;;;5082593;28;20225;-63
2023/03/16 03:54:47;;;;;;;27.63;13.87;;;3.00;99.90;;;;;;5078542;28;20329;-63
2023/03/16 03:57:39;;;;;;;28.43;14.60;;;2.90;99.90;;;;;;5095273;28;20246;-62
2023/03/16 04:00:28;;;;;;;30.57;13.53;;;3.10;99.90;;;;;;5082204;28;20250;-61
2023/03/16 04:03:18;;;;;;;27.83;14.90;;;3.10;99.90;;;;;;5094216;28;20241;-62
2023/03/16 04:06:07;;;;;;;36.20;18.50;;;3.00;99.90;;;;;;5075075;28;20222;-64
2023/03/16 04:08:56;;;;;;;30.93;15.00;;;2.80;99.90;;;;;;5076619;28;20226;-63
2023/03/16 04:11:47;;;;;;;24.87;13.77;;;2.80;99.90;;;;;;5092350;27;20237;-65
2023/03/16 04:14:38;;;;;;;29.93;14.10;;;2.90;99.90;;;;;;5079370;28;20226;-63
2023/03/16 04:17:29;;;;;;;26.87;15.10;;;2.90;99.90;;;;;;5091996;28;20217;-65
2023/03/16 04:20:22;;;;;;;29.30;14.27;;;2.90;99.90;;;;;;5074680;28;20223;-65
2023/03/16 04:23:11;;;;;;;27.67;13.97;;;2.90;99.90;;;;;;5087402;28;20257;-64
2023/03/16 04:26:02;;;;;;;26.70;14.40;;;2.90;99.90;;;;;;5081923;28;20251;-66
2023/03/16 04:28:52;;;;;;;29.93;14.80;;;2.90;99.90;;;;;;5076686;28;20224;-65
2023/03/16 04:31:43;;;;;;;31.07;15.50;;;2.70;99.90;;;;;;5093615;28;20226;-65
2023/03/16 04:34:32;;;;;;;39.57;16.53;;;2.70;99.90;;;;;;5073536;28;20723;-67
2023/03/16 04:37:24;;;;;;;38.03;17.70;;;2.60;99.90;;;;;;5076867;28;20703;-66
2023/03/16 04:40:18;;;;;;;39.00;19.13;;;2.50;99.90;;;;;;5087453;28;20227;-65
2023/03/16 04:43:13;;;;;;;37.30;19.10;;;2.70;99.90;;;;;;5087006;28;20705;-65
2023/03/16 04:46:04;;;;;;;30.30;17.33;;;2.70;99.90;;;;;;5075083;28;20253;-66
2023/03/16 04:48:57;;;;;;;37.10;18.40;;;2.60;99.90;;;;;;5077417;28;20217;-65
2023/03/16 04:51:47;;;;;;;35.43;17.67;;;2.70;99.90;;;;;;5079722;28;20306;-67
2023/03/16 04:54:39;;;;;;;34.37;17.37;;;2.50;99.90;;;;;;5073116;28;20317;-66
2023/03/16 04:57:29;;;;;;;31.30;17.03;;;2.80;99.90;;;;;;5076272;28;20236;-66
2023/03/16 05:00:20;;;;;;;30.60;17.50;;;2.60;99.90;;;;;;5062881;28;20250;-65
2023/03/16 05:03:20;;;;;;;30.17;16.73;;;2.70;99.90;;;;;;5091896;28;20590;-66
2023/03/16 05:06:12;;;;;;;33.17;16.80;;;2.60;99.90;;;;;;5090416;28;20942;-64
2023/03/16 05:09:04;;;;;;;30.27;17.40;;;2.60;99.90;;;;;;5080247;28;20708;-65
2023/03/16 05:11:56;;;;;;;36.47;16.63;;;2.60;99.90;;;;;;5071798;28;20229;-65
2023/03/16 05:14:45;;;;;;;33.47;16.40;;;2.60;99.90;;;;;;5091975;28;20270;-64
2023/03/16 05:17:45;;;;;;;31.03;16.23;;;2.70;99.90;;;;;;5069479;28;20222;-64
2023/03/16 05:20:35;;;;;;;30.27;14.90;;;2.70;99.90;;;;;;5081057;28;20222;-65
2023/03/16 05:23:26;;;;;;;32.90;15.57;;;2.70;99.90;;;;;;5081841;28;20228;-66
2023/03/16 05:26:20;;;;;;;32.90;15.90;;;2.70;99.90;;;;;;5073272;28;20218;-66
2023/03/16 05:29:10;;;;;;;32.70;15.70;;;2.70;99.90;;;;;;5075309;28;20251;-65
2023/03/16 05:31:59;;;;;;;34.23;14.97;;;2.60;99.90;;;;;;5092075;28;20593;-65
2023/03/16 05:34:51;;;;;;;27.30;15.03;;;2.60;99.90;;;;;;5079563;28;20233;-65
2023/03/16 05:37:42;;;;;;;34.53;16.53;;;2.70;99.90;;;;;;5079327;28;20246;-66
2023/03/16 05:40:37;;;;;;;30.73;15.30;;;3.00;99.90;;;;;;5077433;28;20237;-65
2023/03/16 05:43:36;;;;;;;33.47;15.57;;;3.10;99.90;;;;;;5101410;27;20220;-65
2023/03/16 05:46:25;;;;;;;29.07;15.60;;;3.00;99.90;;;;;;5067385;28;20256;-65
2023/03/16 05:49:16;;;;;;;31.27;15.73;;;2.90;99.90;;;;;;5080854;28;20225;-65
2023/03/16 05:52:05;;;;;;;36.87;17.07;;;3.10;99.90;;;;;;5096706;27;20268;-66
2023/03/16 05:54:57;;;;;;;31.00;14.77;;;3.20;99.90;;;;;;5079404;28;21052;-66
2023/03/16 05:57:48;;;;;;;31.67;15.17;;;3.20;99.90;;;;;;5088686;28;20438;-66
2023/03/16 06:00:38;;;;;;;32.20;15.17;;;3.20;99.90;;;;;;5092122;28;20226;-66
2023/03/16 06:03:42;;;;;;;30.53;15.63;;;3.10;99.90;;;;;;5072005;28;20320;-66
2023/03/16 06:06:35;;;;;;;34.53;16.83;;;3.20;99.90;;;;;;5065696;28;20230;-65
2023/03/16 06:09:33;;;;;;;35.10;16.17;;;3.30;99.90;;;;;;5090114;28;20313;-67
2023/03/16 06:12:27;;;;;;;29.57;14.63;;;3.40;99.90;;;;;;5075078;28;20226;-66
2023/03/16 06:15:17;;;;;;;37.77;15.83;;;3.50;99.90;;;;;;5084623;28;20309;-65
2023/03/16 06:18:07;;;;;;;32.17;15.83;;;3.50;99.90;;;;;;5081434;28;20222;-64
2023/03/16 06:20:56;;;;;;;29.70;14.53;;;3.60;99.90;;;;;;5079647;28;20223;-65
2023/03/16 06:23:45;;;;;;;28.43;15.17;;;3.60;99.90;;;;;;5077250;28;20226;-65
2023/03/16 06:26:35;;;;;;;33.27;15.93;;;3.60;99.90;;;;;;5079238;28;20230;-64
2023/03/16 06:29:27;;;;;;;34.33;15.50;;;3.70;99.90;;;;;;5092845;28;20558;-64
2023/03/16 06:32:17;;;;;;;30.27;14.53;;;3.80;99.90;;;;;;5107776;27;20574;-64
2023/03/16 06:35:06;;;;;;;31.03;15.27;;;3.80;99.90;;;;;;5077801;28;20239;-65
2023/03/16 06:37:55;;;;;;;24.47;13.70;;;3.90;99.90;;;;;;5085711;28;20310;-63
2023/03/16 06:41:02;;;;;;;29.73;14.53;;;3.90;99.90;;;;;;5079399;28;20215;-64
2023/03/16 06:43:54;;;;;;;29.30;15.47;;;4.00;99.90;;;;;;5084341;28;20223;-64
2023/03/16 06:46:43;;;;;;;31.77;15.33;;;4.00;99.90;;;;;;5083718;28;20222;-65
2023/03/16 06:49:34;;;;;;;31.97;14.63;;;4.20;99.90;;;;;;5092148;28;20778;-67
2023/03/16 06:52:27;;;;;;;29.03;15.20;;;4.20;99.90;;;;;;5076899;28;20215;-65
2023/03/16 06:55:17;;;;;;;33.57;15.67;;;4.30;99.90;;;;;;5078710;28;20227;-65
2023/03/16 06:58:07;;;;;;;29.33;15.57;;;4.40;99.90;;;;;;5091967;28;20211;-64
2023/03/16 07:00:56;;;;;;;31.83;15.10;;;4.40;99.90;;;;;;5083254;28;20276;-63
2023/03/16 07:03:45;;;;;;;31.70;13.60;;;4.50;99.90;;;;;;5085354;28;20598;-64
2023/03/16 07:06:43;;;;;;;26.97;13.53;;;4.40;99.90;;;;;;5083051;28;20230;-65
2023/03/16 07:09:33;;;;;;;34.23;15.70;;;4.50;99.90;;;;;;5084358;28;20232;-66
2023/03/16 07:12:26;;;;;;;31.47;13.87;;;4.50;99.90;;;;;;5096009;27;20638;-68
2023/03/16 07:15:15;;;;;;;30.13;13.77;;;4.50;99.90;;;;;;5093785;27;20231;-65
2023/03/16 07:18:04;;;;;;;29.67;13.30;;;4.60;99.90;;;;;;5093853;28;20222;-65
2023/03/16 07:20:54;;;;;;;26.50;13.77;;;4.70;99.90;;;;;;5059351;28;20310;-64
2023/03/16 07:23:47;;;;;;;33.43;15.77;;;4.80;99.90;;;;;;5091383;28;20591;-65
2023/03/16 07:26:42;;;;;;;33.10;15.53;;;4.70;99.90;;;;;;5079350;28;20239;-64
2023/03/16 07:29:34;;;;;;;36.47;15.17;;;4.80;99.90;;;;;;5092386;28;20311;-64
2023/03/16 07:32:24;;;;;;;27.00;14.27;;;4.80;99.90;;;;;;5086886;28;20227;-66
2023/03/16 07:35:13;;;;;;;30.87;15.50;;;4.90;99.90;;;;;;5084405;27;20222;-64
2023/03/16 07:38:02;;;;;;;23.87;14.20;;;4.90;99.90;;;;;;5084813;28;20295;-64
2023/03/16 07:40:52;;;;;;;22.93;13.23;;;5.00;99.90;;;;;;5079224;28;20318;-65
2023/03/16 07:43:44;;;;;;;24.47;12.73;;;4.90;99.90;;;;;;5107193;27;20318;-65
2023/03/16 07:46:35;;;;;;;28.73;13.37;;;5.00;99.90;;;;;;5078217;28;20230;-65
2023/03/16 07:49:23;;;;;;;25.73;12.97;;;4.90;99.90;;;;;;5077274;28;20219;-65
2023/03/16 07:52:14;;;;;;;28.13;14.03;;;5.10;99.90;;;;;;5094468;27;20262;-65
2023/03/16 07:55:05;;;;;;;22.60;11.70;;;5.20;99.90;;;;;;5090891;28;20227;-66
2023/03/16 07:57:55;;;;;;;21.80;11.73;;;5.30;99.90;;;;;;5078473;28;20285;-65
2023/03/16 08:00:50;;;;;;;19.77;11.27;;;5.60;99.90;;;;;;5078534;28;20223;-64
2023/03/16 08:03:40;;;;;;;23.27;12.67;;;5.90;99.90;;;;;;5075933;28;20226;-65
2023/03/16 08:06:29;;;;;;;22.60;12.93;;;6.50;99.90;;;;;;5072128;28;20223;-63
2023/03/16 08:09:18;;;;;;;22.27;12.67;;;7.40;99.90;;;;;;5079528;28;20239;-64
2023/03/16 08:12:09;;;;;;;20.90;12.67;;;8.00;99.90;;;;;;5079024;28;20714;-65
2023/03/16 08:14:59;;;;;;;19.93;11.87;;;8.70;99.90;;;;;;5079313;28;20222;-65
2023/03/16 08:17:51;;;;;;;20.77;11.63;;;9.20;99.90;;;;;;5066107;28;20306;-65
2023/03/16 08:20:44;;;;;;;21.13;10.97;;;9.10;99.90;;;;;;5076388;28;20303;-66
2023/03/16 08:23:34;;;;;;;17.63;11.97;;;9.80;99.90;;;;;;5074187;28;20232;-66
2023/03/16 08:26:26;;;;;;;20.37;12.47;;;9.80;99.90;;;;;;5078232;28;20223;-67
2023/03/16 08:29:19;;;;;;;17.77;10.67;;;10.10;99.90;;;;;;5072286;28;20250;-67
2023/03/16 08:32:11;;;;;;;19.33;11.63;;;10.20;99.90;;;;;;5075332;28;20215;-65
2023/03/16 08:35:04;;;;;;;21.60;11.93;;;10.60;99.90;;;;;;5081993;28;20220;-67
2023/03/16 08:37:54;;;;;;;24.08;12.48;;;11.10;99.90;;;;;;5073670;28;20292;-70
2023/03/16 08:40:47;;;;;;;19.55;11.20;;;11.00;99.90;;;;;;5076082;28;20220;-67
2023/03/16 08:43:37;;;;;;;24.45;14.20;;;10.80;99.90;;;;;;5079128;28;20224;-67
2023/03/16 08:46:26;;;;;;;26.08;14.75;;;10.50;99.90;;;;;;5077595;28;20246;-67
2023/03/16 08:49:20;;;;;;;19.90;11.48;;;10.90;99.90;;;;;;5079783;28;20231;-67
2023/03/16 08:52:18;;;;;;;20.90;11.93;;;11.30;99.90;;;;;;5079144;27;20325;-67
2023/03/16 08:55:09;;;;;;;15.90;9.32;;;11.50;99.90;;;;;;5080167;28;20231;-67
2023/03/16 08:57:58;;;;;;;11.90;7.70;;;11.60;99.90;;;;;;5072330;28;20226;-66
2023/03/16 09:00:47;;;;;;;13.85;8.75;;;11.50;99.90;;;;;;5081769;28;20278;-66
2023/03/16 09:03:39;;;;;;;17.05;9.88;;;11.70;99.90;;;;;;5080418;28;20219;-66
2023/03/16 09:06:29;;;;;;;17.75;9.98;;;12.30;99.90;;;;;;5092663;28;20223;-67
2023/03/16 09:09:18;;;;;;;15.25;9.48;;;12.30;99.90;;;;;;5075516;28;20223;-67
2023/03/16 09:12:07;;;;;;;14.93;9.15;;;12.10;99.90;;;;;;5079353;28;20231;-66
2023/03/16 09:14:56;;;;;;;18.25;10.18;;;12.20;99.90;;;;;;5076903;28;20806;-66
2023/03/16 09:17:45;;;;;;;15.82;9.60;;;11.80;99.90;;;;;;5074994;28;20231;-65
2023/03/16 09:20:34;;;;;;;15.75;9.82;;;11.00;99.90;;;;;;5081733;28;20219;-65
2023/03/16 09:23:25;;;;;;;20.58;10.40;;;10.60;99.90;;;;;;5078019;28;20222;-65
2023/03/16 09:26:14;;;;;;;22.08;11.40;;;9.90;99.90;;;;;;5079481;28;20229;-65
2023/03/16 09:29:05;;;;;;;16.83;9.07;;;9.70;99.90;;;;;;5083572;28;20239;-65
2023/03/16 09:31:54;;;;;;;16.23;9.25;;;9.40;99.90;;;;;;5096281;28;20219;-64
2023/03/16 09:34:43;;;;;;;16.65;9.35;;;9.20;99.90;;;;;;5082060;28;20219;-64
2023/03/16 09:37:32;;;;;;;14.27;8.27;;;9.10;99.90;;;;;;5081456;28;20266;-64
2023/03/16 09:40:36;;;;;;;12.50;7.82;;;8.90;99.90;;;;;;5079560;28;20254;-65
2023/03/16 09:43:42;;;;;;;10.63;7.18;;;8.80;99.90;;;;;;5081540;27;20287;-64
2023/03/16 09:46:34;;;;;;;11.98;7.22;;;8.60;99.90;;;;;;5091370;28;20239;-66
2023/03/16 09:49:27;;;;;;;11.07;6.10;;;8.70;99.90;;;;;;5079675;28;20401;-67
2023/03/16 09:52:26;;;;;;;12.13;6.28;;;8.90;99.90;;;;;;5076846;28;20227;-66
2023/03/16 09:55:27;;;;;;;14.93;6.53;;;8.60;99.90;;;;;;5077159;27;20231;-64
2023/03/16 09:58:21;;;;;;;11.95;6.57;;;8.80;99.90;;;;;;5087992;28;20425;-65
2023/03/16 10:01:18;;;;;;;9.40;5.82;;;8.80;99.90;;;;;;5079324;28;20237;-65
2023/03/16 10:04:23;;;;;;;12.00;5.88;;;8.70;99.90;;;;;;5077923;28;20909;-65
2023/03/16 10:07:23;;;;;;;17.08;5.72;;;8.40;99.90;;;;;;5078822;28;20226;-66
2023/03/16 10:10:27;;;;;;;9.45;5.70;;;8.30;99.90;;;;;;5076224;28;20697;-66
2023/03/16 10:13:28;;;;;;;7.80;4.78;;;8.30;99.90;;;;;;5073482;28;20425;-66
2023/03/16 10:16:21;;;;;;;11.25;5.45;;;8.40;99.90;;;;;;5085364;28;20242;-64
2023/03/16 10:19:13;;;;;;;12.70;5.57;;;8.20;99.90;;;;;;5079472;28;20223;-65
2023/03/16 10:22:16;;;;;;;9.85;4.30;;;8.20;99.90;;;;;;5077082;28;20223;-66
2023/03/16 10:25:11;;;;;;;9.02;4.43;;;8.10;99.90;;;;;;5086753;28;20297;-63
2023/03/16 10:28:18;;;;;;;9.55;4.22;;;8.10;99.90;;;;;;5091503;28;20968;-65
2023/03/16 10:31:11;;;;;;;8.32;3.90;;;8.30;99.90;;;;;;5086210;28;20234;-66
2023/03/16 10:34:05;;;;;;;13.93;6.38;;;8.60;99.90;;;;;;5083943;28;20307;-66
2023/03/16 10:36:55;;;;;;;12.18;6.65;;;8.40;99.90;;;;;;5082701;28;20220;-64
2023/03/16 10:39:44;;;;;;;10.48;4.45;;;8.50;99.90;;;;;;5083797;28;20219;-64
2023/03/16 10:42:36;;;;;;;10.25;5.10;;;8.70;99.90;;;;;;5080631;28;20250;-65
2023/03/16 10:45:29;;;;;;;13.63;4.70;;;8.70;99.90;;;;;;5077969;28;20696;-69
2023/03/16 10:48:21;;;;;;;6.60;4.47;;;8.70;99.90;;;;;;5079890;28;20223;-67
2023/03/16 10:51:14;;;;;;;9.77;5.25;;;8.50;99.90;;;;;;5084132;28;20311;-65
2023/03/16 10:54:10;;;;;;;10.45;6.03;;;8.70;99.90;;;;;;5085338;28;20847;-67
2023/03/16 10:56:59;;;;;;;11.95;4.88;;;8.70;99.90;;;;;;5083957;28;20584;-66
2023/03/16 10:59:50;;;;;;;13.73;6.43;;;8.50;99.90;;;;;;5102112;27;20377;-63
2023/03/16 11:02:39;;;;;;;11.77;5.85;;;8.60;99.90;;;;;;5080332;28;20223;-65
2023/03/16 11:05:32;;;;;;;10.20;5.50;;;8.70;99.90;;;;;;5081872;28;20246;-63
2023/03/16 11:08:26;;;;;;;12.80;5.45;;;8.60;99.90;;;;;;5074869;28;20303;-63
2023/03/16 11:11:18;;;;;;;9.70;5.20;;;8.70;99.90;;;;;;5094262;28;20223;-65
2023/03/16 11:14:14;;;;;;;13.45;5.70;;;8.60;99.90;;;;;;5085825;28;20223;-66
2023/03/16 11:17:08;;;;;;;14.20;5.50;;;8.70;99.90;;;;;;5086225;28;20242;-67
2023/03/16 11:20:00;;;;;;;12.98;5.28;;;8.70;99.90;;;;;;5085789;28;20269;-67
2023/03/16 11:22:51;;;;;;;11.38;5.15;;;8.70;99.90;;;;;;5083640;28;20284;-66
2023/03/16 11:25:45;;;;;;;10.55;4.63;;;8.90;99.90;;;;;;5085674;28;20234;-64
2023/03/16 11:28:37;;;;;;;10.18;5.05;;;8.50;99.90;;;;;;5085903;28;20728;-64
2023/03/16 11:31:41;;;;;;;10.55;4.57;;;8.50;99.90;;;;;;5081175;28;20224;-64
2023/03/16 11:34:32;;;;;;;9.30;4.80;;;8.80;99.90;;;;;;5086216;27;21889;-62
2023/03/16 11:37:32;;;;;;;11.18;4.55;;;9.00;99.90;;;;;;5079956;28;20220;-63
2023/03/16 11:40:37;;;;;;;12.20;4.32;;;9.20;99.90;;;;;;5073308;28;20220;-63
2023/03/16 11:43:53;;;;;;;9.05;4.20;;;9.20;99.90;;;;;;5078743;28;20235;-65
2023/03/16 11:46:51;;;;;;;11.75;4.30;;;9.20;99.90;;;;;;5089876;28;20801;-64
2023/03/16 11:49:52;;;;;;;83.80;7.80;;;9.10;99.90;;;;;;5081451;28;20235;-66
2023/03/16 11:52:52;;;;;;;13.93;4.70;;;9.10;99.90;;;;;;5080801;28;20280;-66
2023/03/16 11:55:49;;;;;;;19.30;5.00;;;8.90;99.90;;;;;;5077516;28;20238;-63
2023/03/16 11:58:53;;;;;;;14.27;4.78;;;8.70;99.90;;;;;;5082544;28;20233;-65
2023/03/16 12:01:56;;;;;;;10.95;4.85;;;8.40;99.90;;;;;;5080161;27;21056;-65
2023/03/16 12:05:00;;;;;;;14.63;4.95;;;8.50;99.90;;;;;;5078555;28;20230;-65
2023/03/16 12:07:59;;;;;;;13.57;4.40;;;8.40;99.90;;;;;;5076595;28;20325;-65
2023/03/16 12:10:53;;;;;;;11.65;4.65;;;8.40;99.90;;;;;;5079764;28;20223;-65
2023/03/16 12:13:56;;;;;;;10.05;4.53;;;8.40;99.90;;;;;;5081980;28;20231;-65
2023/03/16 12:16:48;;;;;;;14.32;4.82;;;8.40;99.90;;;;;;5080127;28;20521;-67
2023/03/16 12:19:43;;;;;;;11.25;4.25;;;8.50;99.90;;;;;;5093465;28;20231;-67
2023/03/16 12:22:37;;;;;;;15.25;4.40;;;8.60;99.90;;;;;;5095946;28;20223;-65
2023/03/16 12:25:31;;;;;;;16.37;4.33;;;8.60;99.90;;;;;;5102663;27;20223;-67
2023/03/16 12:28:25;;;;;;;10.77;4.15;;;8.60;99.90;;;;;;5078472;28;20823;-69
2023/03/16 12:31:16;;;;;;;13.85;5.07;;;8.70;99.90;;;;;;5089889;28;20407;-67
2023/03/16 12:34:17;;;;;;;10.23;4.70;;;8.80;99.90;;;;;;5077898;28;20227;-65
2023/03/16 12:37:14;;;;;;;13.93;5.50;;;9.00;99.90;;;;;;5083007;27;20380;-67
2023/03/16 12:40:24;;;;;;;14.35;5.15;;;9.20;99.90;;;;;;5073432;28;20219;-66
2023/03/16 12:43:28;;;;;;;15.50;5.15;;;9.40;99.90;;;;;;5078873;28;20376;-65
2023/03/16 12:46:29;;;;;;;12.02;5.05;;;9.30;99.90;;;;;;5080733;28;20227;-66
2023/03/16 12:49:18;;;;;;;11.23;3.97;;;9.00;99.90;;;;;;5079771;28;20288;-68
2023/03/16 12:52:10;;;;;;;12.57;4.15;;;8.80;99.90;;;;;;5075468;28;20227;-65
2023/03/16 12:55:12;;;;;;;12.57;4.28;;;8.80;99.90;;;;;;5071265;28;20327;-67
2023/03/16 12:58:05;;;;;;;18.35;4.35;;;8.80;99.90;;;;;;5101906;27;20274;-66
2023/03/16 13:01:02;;;;;;;12.07;4.60;;;8.70;99.90;;;;;;5108179;27;20219;-66
2023/03/16 13:04:01;;;;;;;11.73;3.85;;;8.50;99.90;;;;;;5103543;27;20219;-67
2023/03/16 13:06:52;;;;;;;12.77;3.97;;;8.60;99.90;;;;;;5077857;28;20253;-66
2023/03/16 13:09:47;;;;;;;17.20;3.85;;;8.40;99.90;;;;;;5081940;28;20937;-66
2023/03/16 13:12:37;;;;;;;9.75;3.50;;;8.40;99.90;;;;;;5080150;28;20288;-66
2023/03/16 13:15:30;;;;;;;12.50;4.07;;;8.40;99.90;;;;;;5078233;28;20227;-65
2023/03/16 13:18:34;;;;;;;17.83;7.63;;;8.40;99.90;;;;;;5076754;28;20296;-65
2023/03/16 13:21:35;;;;;;;16.55;4.65;;;8.60;99.90;;;;;;5104208;27;20215;-65
2023/03/16 13:24:28;;;;;;;12.75;4.28;;;8.60;99.90;;;;;;5077816;28;20325;-65
2023/03/16 13:27:22;;;;;;;12.45;4.28;;;8.70;99.90;;;;;;5075477;28;20216;-65
2023/03/16 13:30:21;;;;;;;14.80;4.30;;;8.90;99.90;;;;;;5076379;28;20219;-65
2023/03/16 13:33:19;;;;;;;16.05;4.25;;;8.90;99.90;;;;;;5077265;28;20332;-67
2023/03/16 13:36:12;;;;;;;14.07;4.15;;;9.10;99.90;;;;;;5070986;28;20228;-65
2023/03/16 13:39:07;;;;;;;12.07;4.43;;;9.10;99.90;;;;;;5078767;28;20698;-66
2023/03/16 13:42:02;;;;;;;15.98;4.55;;;9.20;99.90;;;;;;5076812;28;20326;-65
2023/03/16 13:44:53;;;;;;;12.05;3.92;;;9.10;99.90;;;;;;5079143;28;20219;-66
2023/03/16 13:47:44;;;;;;;12.05;3.78;;;9.20;99.90;;;;;;5078083;28;20237;-67
2023/03/16 13:50:34;;;;;;;12.52;3.75;;;8.70;99.90;;;;;;5084124;28;20234;-66
2023/03/16 13:53:27;;;;;;;10.40;4.00;;;8.80;99.90;;;;;;5083714;28;20230;-66
2023/03/16 13:56:21;;;;;;;12.85;4.90;;;8.80;99.90;;;;;;5078165;28;20315;-66
2023/03/16 13:59:10;;;;;;;10.52;3.90;;;8.80;99.90;;;;;;5090839;28;20284;-67
2023/03/16 14:02:01;;;;;;;11.95;4.07;;;8.70;99.90;;;;;;5078937;28;20224;-66
2023/03/16 14:04:51;;;;;;;12.23;4.50;;;8.80;99.90;;;;;;5092845;28;20318;-65
2023/03/16 14:07:40;;;;;;;11.52;4.60;;;8.70;99.90;;;;;;5113678;27;20680;-65
2023/03/16 14:10:33;;;;;;;12.32;4.47;;;8.70;99.90;;;;;;5087215;28;20242;-65
2023/03/16 14:13:38;;;;;;;11.30;4.50;;;8.60;99.90;;;;;;5085978;28;21212;-66
2023/03/16 14:16:30;;;;;;;12.27;4.38;;;8.60;99.90;;;;;;5076468;28;20572;-66
2023/03/16 14:19:24;;;;;;;14.05;4.57;;;8.50;99.90;;;;;;5084645;28;20852;-65
2023/03/16 14:22:18;;;;;;;11.10;4.03;;;8.50;99.90;;;;;;5080874;28;20239;-66
2023/03/16 14:25:07;;;;;;;9.00;3.83;;;8.60;99.90;;;;;;5073165;28;20691;-67
2023/03/16 14:28:06;;;;;;;12.32;4.22;;;8.40;99.90;;;;;;5082124;28;20858;-66
2023/03/16 14:31:02;;;;;;;13.98;4.30;;;8.30;99.90;;;;;;5083246;28;21098;-66
2023/03/16 14:34:01;;;;;;;11.05;3.78;;;8.40;99.90;;;;;;5080120;28;20717;-65
2023/03/16 14:36:50;;;;;;;13.32;3.60;;;8.20;99.90;;;;;;5082420;28;20753;-65
2023/03/16 14:39:39;;;;;;;13.57;4.07;;;8.40;99.90;;;;;;5069467;28;20220;-66
2023/03/16 14:42:30;;;;;;;15.68;4.30;;;8.30;99.90;;;;;;5085079;27;20211;-67
2023/03/16 14:45:21;;;;;;;12.68;3.85;;;8.30;99.90;;;;;;5080742;28;20292;-67
2023/03/16 14:48:21;;;;;;;9.13;3.35;;;8.20;99.90;;;;;;5081174;28;20247;-65
2023/03/16 14:51:14;;;;;;;14.63;3.70;;;8.10;99.90;;;;;;5083539;28;20223;-65
2023/03/16 14:54:06;;;;;;;8.27;3.78;;;8.20;99.90;;;;;;5113069;27;20227;-66